sensor_id;sensor_type;location;lat;lon;timestamp;temperature;humidity
4425;DHT22;2225;53.568;13.266;2023-04-03T00:01:19;3.80;90.00
4425;DHT22;2225;53.568;13.266;2023-04-03T00:03:46;3.80;90.10
4425;DHT22;2225;53.568;13.266;2023-04-03T00:06:14;3.70;90.20
4425;DHT22;2225;53.568;13.266;2023-04-03T00:08:41;3.70;90.40
4425;DHT22;2225;53.568;13.266;2023-04-03T00:11:08;3.70;90.50
4425;DHT22;2225;53.568;13.266;2023-04-03T00:13:35;3.60;90.50
4425;DHT22;2225;53.568;13.266;2023-04-03T00:16:02;3.60;90.60
4425;DHT22;2225;53.568;13.266;2023-04-03T00:18:29;3.50;90.90
4425;DHT22;2225;53.568;13.266;2023-04-03T00:20:57;3.50;90.90
4425;DHT22;2225;53.568;13.266;2023-04-03T00:23:23;3.50;91.00
4425;DHT22;2225;53.568;13.266;2023-04-03T00:25:51;3.50;90.90
4425;DHT22;2225;53.568;13.266;2023-04-03T00:28:18;3.50;91.00
4425;DHT22;2225;53.568;13.266;2023-04-03T00:30:46;3.40;91.00
4425;DHT22;2225;53.568;13.266;2023-04-03T00:33:13;3.40;91.10
4425;DHT22;2225;53.568;13.266;2023-04-03T00:35:41;3.40;91.10
4425;DHT22;2225;53.568;13.266;2023-04-03T00:38:09;3.40;91.00
4425;DHT22;2225;53.568;13.266;2023-04-03T00:40:38;3.40;91.20
4425;DHT22;2225;53.568;13.266;2023-04-03T00:43:13;3.40;91.10
4425;DHT22;2225;53.568;13.266;2023-04-03T00:45:54;3.40;91.10
4425;DHT22;2225;53.568;13.266;2023-04-03T00:48:31;3.40;91.10
4425;DHT22;2225;53.568;13.266;2023-04-03T00:51:01;3.40;91.10
4425;DHT22;2225;53.568;13.266;2023-04-03T00:53:50;3.40;91.10
4425;DHT22;2225;53.568;13.266;2023-04-03T00:56:24;3.40;91.10
4425;DHT22;2225;53.568;13.266;2023-04-03T00:59:13;3.40;91.00
4425;DHT22;2225;53.568;13.266;2023-04-03T01:01:42;3.40;91.00
4425;DHT22;2225;53.568;13.266;2023-04-03T01:04:34;3.40;90.90
4425;DHT22;2225;53.568;13.266;2023-04-03T01:07:12;3.40;91.10
4425;DHT22;2225;53.568;13.266;2023-04-03T01:09:42;3.30;91.10
4425;DHT22;2225;53.568;13.266;2023-04-03T01:12:22;3.30;91.10
4425;DHT22;2225;53.568;13.266;2023-04-03T01:14:52;3.30;91.10
4425;DHT22;2225;53.568;13.266;2023-04-03T01:25:42;3.30;91.00
4425;DHT22;2225;53.568;13.266;2023-04-03T01:28:24;3.30;91.10
4425;DHT22;2225;53.568;13.266;2023-04-03T01:33:39;3.30;91.00
4425;DHT22;2225;53.568;13.266;2023-04-03T01:36:06;3.20;90.90
4425;DHT22;2225;53.568;13.266;2023-04-03T01:38:34;3.30;91.00
4425;DHT22;2225;53.568;13.266;2023-04-03T01:41:01;3.20;91.00
4425;DHT22;2225;53.568;13.266;2023-04-03T01:43:28;3.20;91.00
4425;DHT22;2225;53.568;13.266;2023-04-03T01:45:55;3.20;91.00
4425;DHT22;2225;53.568;13.266;2023-04-03T01:48:23;3.20;91.00
4425;DHT22;2225;53.568;13.266;2023-04-03T01:50:50;3.20;91.00
4425;DHT22;2225;53.568;13.266;2023-04-03T01:53:18;3.20;91.10
4425;DHT22;2225;53.568;13.266;2023-04-03T01:55:45;3.20;91.10
4425;DHT22;2225;53.568;13.266;2023-04-03T01:58:12;3.20;91.10
4425;DHT22;2225;53.568;13.266;2023-04-03T02:00:38;3.20;91.10
4425;DHT22;2225;53.568;13.266;2023-04-03T02:03:05;3.20;91.10
4425;DHT22;2225;53.568;13.266;2023-04-03T02:05:34;3.20;91.10
4425;DHT22;2225;53.568;13.266;2023-04-03T02:08:01;3.20;91.20
4425;DHT22;2225;53.568;13.266;2023-04-03T02:10:28;3.10;91.20
4425;DHT22;2225;53.568;13.266;2023-04-03T02:12:56;3.10;91.30
4425;DHT22;2225;53.568;13.266;2023-04-03T02:15:24;3.10;91.30
4425;DHT22;2225;53.568;13.266;2023-04-03T02:17:51;3.10;91.30
4425;DHT22;2225;53.568;13.266;2023-04-03T02:20:20;3.10;91.30
4425;DHT22;2225;53.568;13.266;2023-04-03T02:22:47;3.10;91.30
4425;DHT22;2225;53.568;13.266;2023-04-03T02:25:14;3.10;91.30
4425;DHT22;2225;53.568;13.266;2023-04-03T02:27:41;3.10;91.10
4425;DHT22;2225;53.568;13.266;2023-04-03T02:30:08;3.10;91.30
4425;DHT22;2225;53.568;13.266;2023-04-03T02:32:37;3.00;91.30
4425;DHT22;2225;53.568;13.266;2023-04-03T02:35:04;3.10;91.30
4425;DHT22;2225;53.568;13.266;2023-04-03T02:37:32;3.00;91.30
4425;DHT22;2225;53.568;13.266;2023-04-03T02:39:59;3.10;91.20
4425;DHT22;2225;53.568;13.266;2023-04-03T02:42:27;3.00;91.30
4425;DHT22;2225;53.568;13.266;2023-04-03T02:44:54;3.10;91.30
4425;DHT22;2225;53.568;13.266;2023-04-03T02:47:22;3.10;91.30
4425;DHT22;2225;53.568;13.266;2023-04-03T02:49:49;3.10;91.30
4425;DHT22;2225;53.568;13.266;2023-04-03T02:52:16;3.10;91.30
4425;DHT22;2225;53.568;13.266;2023-04-03T02:54:43;3.10;91.30
4425;DHT22;2225;53.568;13.266;2023-04-03T02:57:11;3.00;91.50
4425;DHT22;2225;53.568;13.266;2023-04-03T02:59:38;3.00;91.50
4425;DHT22;2225;53.568;13.266;2023-04-03T03:02:10;3.10;91.50
4425;DHT22;2225;53.568;13.266;2023-04-03T03:04:37;3.00;91.50
4425;DHT22;2225;53.568;13.266;2023-04-03T03:07:05;3.00;91.50
4425;DHT22;2225;53.568;13.266;2023-04-03T03:09:32;3.00;91.50
4425;DHT22;2225;53.568;13.266;2023-04-03T03:11:59;3.00;91.50
4425;DHT22;2225;53.568;13.266;2023-04-03T03:14:29;3.00;91.70
4425;DHT22;2225;53.568;13.266;2023-04-03T03:16:55;3.00;91.60
4425;DHT22;2225;53.568;13.266;2023-04-03T03:19:22;3.00;91.60
4425;DHT22;2225;53.568;13.266;2023-04-03T03:21:51;3.00;91.70
4425;DHT22;2225;53.568;13.266;2023-04-03T03:24:18;3.00;91.70
4425;DHT22;2225;53.568;13.266;2023-04-03T03:26:47;3.00;91.70
4425;DHT22;2225;53.568;13.266;2023-04-03T03:29:14;3.00;91.70
4425;DHT22;2225;53.568;13.266;2023-04-03T03:31:41;3.00;91.70
4425;DHT22;2225;53.568;13.266;2023-04-03T03:34:08;3.00;91.70
4425;DHT22;2225;53.568;13.266;2023-04-03T03:36:35;3.00;91.80
4425;DHT22;2225;53.568;13.266;2023-04-03T03:39:03;3.00;91.80
4425;DHT22;2225;53.568;13.266;2023-04-03T03:41:30;3.00;91.80
4425;DHT22;2225;53.568;13.266;2023-04-03T03:43:57;3.00;91.80
4425;DHT22;2225;53.568;13.266;2023-04-03T03:46:27;3.00;91.80
4425;DHT22;2225;53.568;13.266;2023-04-03T03:48:54;3.00;91.90
4425;DHT22;2225;53.568;13.266;2023-04-03T03:51:21;3.10;91.90
4425;DHT22;2225;53.568;13.266;2023-04-03T03:53:48;3.00;91.80
4425;DHT22;2225;53.568;13.266;2023-04-03T03:56:17;3.00;91.80
4425;DHT22;2225;53.568;13.266;2023-04-03T03:58:45;3.00;91.80
4425;DHT22;2225;53.568;13.266;2023-04-03T04:01:13;3.00;91.80
4425;DHT22;2225;53.568;13.266;2023-04-03T04:03:44;3.10;91.90
4425;DHT22;2225;53.568;13.266;2023-04-03T04:06:17;3.00;91.80
4425;DHT22;2225;53.568;13.266;2023-04-03T04:08:44;3.00;91.80
4425;DHT22;2225;53.568;13.266;2023-04-03T04:11:13;3.00;91.90
4425;DHT22;2225;53.568;13.266;2023-04-03T04:13:41;3.00;91.90
4425;DHT22;2225;53.568;13.266;2023-04-03T04:16:10;3.00;91.80
4425;DHT22;2225;53.568;13.266;2023-04-03T04:18:37;3.00;91.80
4425;DHT22;2225;53.568;13.266;2023-04-03T04:21:05;3.00;91.80
4425;DHT22;2225;53.568;13.266;2023-04-03T04:23:32;3.00;91.90
4425;DHT22;2225;53.568;13.266;2023-04-03T04:26:00;3.00;92.00
4425;DHT22;2225;53.568;13.266;2023-04-03T04:28:30;3.00;92.00
4425;DHT22;2225;53.568;13.266;2023-04-03T04:30:59;3.00;92.00
4425;DHT22;2225;53.568;13.266;2023-04-03T04:33:27;3.10;92.00
4425;DHT22;2225;53.568;13.266;2023-04-03T04:35:57;3.10;92.00
4425;DHT22;2225;53.568;13.266;2023-04-03T04:38:24;3.10;92.00
4425;DHT22;2225;53.568;13.266;2023-04-03T04:40:53;3.10;92.10
4425;DHT22;2225;53.568;13.266;2023-04-03T04:43:20;3.10;92.10
4425;DHT22;2225;53.568;13.266;2023-04-03T04:46:00;3.10;92.10
4425;DHT22;2225;53.568;13.266;2023-04-03T04:48:30;3.10;92.20
4425;DHT22;2225;53.568;13.266;2023-04-03T04:50:59;3.10;92.20
4425;DHT22;2225;53.568;13.266;2023-04-03T04:53:26;3.20;92.20
4425;DHT22;2225;53.568;13.266;2023-04-03T04:55:53;3.20;92.20
4425;DHT22;2225;53.568;13.266;2023-04-03T04:58:20;3.20;92.10
4425;DHT22;2225;53.568;13.266;2023-04-03T05:00:47;3.20;92.10
4425;DHT22;2225;53.568;13.266;2023-04-03T05:03:15;3.20;92.10
4425;DHT22;2225;53.568;13.266;2023-04-03T05:05:43;3.20;92.10
4425;DHT22;2225;53.568;13.266;2023-04-03T05:08:10;3.30;92.20
4425;DHT22;2225;53.568;13.266;2023-04-03T05:10:38;3.30;92.20
4425;DHT22;2225;53.568;13.266;2023-04-03T05:13:07;3.30;92.20
4425;DHT22;2225;53.568;13.266;2023-04-03T05:15:34;3.30;92.20
4425;DHT22;2225;53.568;13.266;2023-04-03T05:18:02;3.40;92.20
4425;DHT22;2225;53.568;13.266;2023-04-03T05:20:30;3.40;92.20
4425;DHT22;2225;53.568;13.266;2023-04-03T05:22:58;3.40;92.20
4425;DHT22;2225;53.568;13.266;2023-04-03T05:25:25;3.50;92.10
4425;DHT22;2225;53.568;13.266;2023-04-03T05:27:52;3.50;92.10
4425;DHT22;2225;53.568;13.266;2023-04-03T05:30:19;3.50;92.10
4425;DHT22;2225;53.568;13.266;2023-04-03T05:32:48;3.50;92.00
4425;DHT22;2225;53.568;13.266;2023-04-03T05:35:18;3.60;92.00
4425;DHT22;2225;53.568;13.266;2023-04-03T05:37:48;3.60;92.00
4425;DHT22;2225;53.568;13.266;2023-04-03T05:40:16;3.70;92.00
4425;DHT22;2225;53.568;13.266;2023-04-03T05:42:46;3.70;92.00
4425;DHT22;2225;53.568;13.266;2023-04-03T05:45:14;3.80;92.00
4425;DHT22;2225;53.568;13.266;2023-04-03T05:47:42;3.80;91.90
4425;DHT22;2225;53.568;13.266;2023-04-03T05:50:09;3.80;91.80
4425;DHT22;2225;53.568;13.266;2023-04-03T05:52:38;3.90;91.90
4425;DHT22;2225;53.568;13.266;2023-04-03T05:55:07;4.00;91.80
4425;DHT22;2225;53.568;13.266;2023-04-03T05:57:35;4.10;91.70
4425;DHT22;2225;53.568;13.266;2023-04-03T06:00:05;4.10;91.60
4425;DHT22;2225;53.568;13.266;2023-04-03T06:02:39;4.10;91.50
4425;DHT22;2225;53.568;13.266;2023-04-03T06:05:09;4.30;91.50
4425;DHT22;2225;53.568;13.266;2023-04-03T06:07:40;4.30;91.60
4425;DHT22;2225;53.568;13.266;2023-04-03T06:10:11;4.40;91.40
4425;DHT22;2225;53.568;13.266;2023-04-03T06:12:38;4.40;91.20
4425;DHT22;2225;53.568;13.266;2023-04-03T06:15:06;4.50;91.10
4425;DHT22;2225;53.568;13.266;2023-04-03T06:17:34;4.50;90.90
4425;DHT22;2225;53.568;13.266;2023-04-03T06:20:01;4.60;90.90
4425;DHT22;2225;53.568;13.266;2023-04-03T06:22:28;4.60;90.80
4425;DHT22;2225;53.568;13.266;2023-04-03T06:24:57;4.60;90.50
4425;DHT22;2225;53.568;13.266;2023-04-03T06:27:24;4.70;90.60
4425;DHT22;2225;53.568;13.266;2023-04-03T06:29:50;4.70;90.50
4425;DHT22;2225;53.568;13.266;2023-04-03T06:32:17;4.80;90.50
4425;DHT22;2225;53.568;13.266;2023-04-03T06:34:44;4.80;90.30
4425;DHT22;2225;53.568;13.266;2023-04-03T06:37:15;4.80;90.30
4425;DHT22;2225;53.568;13.266;2023-04-03T06:39:44;4.90;90.40
4425;DHT22;2225;53.568;13.266;2023-04-03T06:42:11;4.90;90.40
4425;DHT22;2225;53.568;13.266;2023-04-03T06:44:47;5.00;90.40
4425;DHT22;2225;53.568;13.266;2023-04-03T06:47:15;5.00;90.20
4425;DHT22;2225;53.568;13.266;2023-04-03T06:49:43;5.10;90.30
4425;DHT22;2225;53.568;13.266;2023-04-03T06:52:10;5.10;90.10
4425;DHT22;2225;53.568;13.266;2023-04-03T06:54:39;5.20;90.00
4425;DHT22;2225;53.568;13.266;2023-04-03T06:57:07;5.30;89.40
4425;DHT22;2225;53.568;13.266;2023-04-03T06:59:34;5.30;88.70
4425;DHT22;2225;53.568;13.266;2023-04-03T07:02:02;5.40;88.50
4425;DHT22;2225;53.568;13.266;2023-04-03T07:04:29;5.50;88.40
4425;DHT22;2225;53.568;13.266;2023-04-03T07:06:56;5.60;87.10
4425;DHT22;2225;53.568;13.266;2023-04-03T07:09:23;5.60;86.50
4425;DHT22;2225;53.568;13.266;2023-04-03T07:11:51;5.70;86.70
4425;DHT22;2225;53.568;13.266;2023-04-03T07:14:18;5.80;85.50
4425;DHT22;2225;53.568;13.266;2023-04-03T07:16:45;5.90;86.00
4425;DHT22;2225;53.568;13.266;2023-04-03T07:19:12;6.00;85.00
4425;DHT22;2225;53.568;13.266;2023-04-03T07:21:39;6.10;83.80
4425;DHT22;2225;53.568;13.266;2023-04-03T07:24:08;6.20;84.30
4425;DHT22;2225;53.568;13.266;2023-04-03T07:26:41;6.30;83.60
4425;DHT22;2225;53.568;13.266;2023-04-03T07:29:08;6.40;83.20
4425;DHT22;2225;53.568;13.266;2023-04-03T07:31:35;6.50;81.70
4425;DHT22;2225;53.568;13.266;2023-04-03T07:34:03;6.60;82.20
4425;DHT22;2225;53.568;13.266;2023-04-03T07:36:30;6.60;81.40
4425;DHT22;2225;53.568;13.266;2023-04-03T07:38:59;6.60;80.00
4425;DHT22;2225;53.568;13.266;2023-04-03T07:41:26;6.70;79.10
4425;DHT22;2225;53.568;13.266;2023-04-03T07:43:53;6.80;79.90
4425;DHT22;2225;53.568;13.266;2023-04-03T07:46:21;6.80;79.10
4425;DHT22;2225;53.568;13.266;2023-04-03T07:48:48;7.00;78.10
4425;DHT22;2225;53.568;13.266;2023-04-03T07:51:15;7.00;77.80
4425;DHT22;2225;53.568;13.266;2023-04-03T07:53:42;7.10;75.70
4425;DHT22;2225;53.568;13.266;2023-04-03T07:56:09;7.10;76.80
4425;DHT22;2225;53.568;13.266;2023-04-03T07:58:37;7.10;75.30
4425;DHT22;2225;53.568;13.266;2023-04-03T08:01:04;7.20;74.90
4425;DHT22;2225;53.568;13.266;2023-04-03T08:03:30;7.20;75.00
4425;DHT22;2225;53.568;13.266;2023-04-03T08:06:03;7.30;75.60
4425;DHT22;2225;53.568;13.266;2023-04-03T08:08:33;7.40;75.00
4425;DHT22;2225;53.568;13.266;2023-04-03T08:11:01;7.40;73.80
4425;DHT22;2225;53.568;13.266;2023-04-03T08:13:29;7.40;73.40
4425;DHT22;2225;53.568;13.266;2023-04-03T08:15:57;7.40;73.30
4425;DHT22;2225;53.568;13.266;2023-04-03T08:18:25;7.50;72.90
4425;DHT22;2225;53.568;13.266;2023-04-03T08:20:53;7.50;72.10
4425;DHT22;2225;53.568;13.266;2023-04-03T08:23:20;7.50;71.40
4425;DHT22;2225;53.568;13.266;2023-04-03T08:25:47;7.50;70.20
4425;DHT22;2225;53.568;13.266;2023-04-03T08:28:14;7.60;71.00
4425;DHT22;2225;53.568;13.266;2023-04-03T08:30:42;7.70;71.90
4425;DHT22;2225;53.568;13.266;2023-04-03T08:33:09;7.70;71.40
4425;DHT22;2225;53.568;13.266;2023-04-03T08:35:41;7.70;70.40
4425;DHT22;2225;53.568;13.266;2023-04-03T08:38:09;7.70;70.10
4425;DHT22;2225;53.568;13.266;2023-04-03T08:40:37;7.70;70.00
4425;DHT22;2225;53.568;13.266;2023-04-03T08:43:37;7.70;69.70
4425;DHT22;2225;53.568;13.266;2023-04-03T08:46:14;7.80;70.00
4425;DHT22;2225;53.568;13.266;2023-04-03T08:48:43;7.90;70.90
4425;DHT22;2225;53.568;13.266;2023-04-03T08:51:14;8.00;69.80
4425;DHT22;2225;53.568;13.266;2023-04-03T08:54:05;8.10;69.70
4425;DHT22;2225;53.568;13.266;2023-04-03T08:56:35;8.10;69.60
4425;DHT22;2225;53.568;13.266;2023-04-03T08:59:11;8.10;68.80
4425;DHT22;2225;53.568;13.266;2023-04-03T09:01:41;8.30;70.30
4425;DHT22;2225;53.568;13.266;2023-04-03T09:04:16;8.30;69.70
4425;DHT22;2225;53.568;13.266;2023-04-03T09:06:52;8.40;70.00
4425;DHT22;2225;53.568;13.266;2023-04-03T09:12:24;8.50;69.00
4425;DHT22;2225;53.568;13.266;2023-04-03T09:15:15;8.60;69.60
4425;DHT22;2225;53.568;13.266;2023-04-03T09:18:20;8.60;69.20
4425;DHT22;2225;53.568;13.266;2023-04-03T09:20:57;8.70;69.40
4425;DHT22;2225;53.568;13.266;2023-04-03T09:23:50;8.70;69.70
4425;DHT22;2225;53.568;13.266;2023-04-03T09:26:30;8.70;67.80
4425;DHT22;2225;53.568;13.266;2023-04-03T09:29:23;8.80;68.00
4425;DHT22;2225;53.568;13.266;2023-04-03T09:31:56;8.80;69.40
4425;DHT22;2225;53.568;13.266;2023-04-03T09:34:32;8.90;69.10
4425;DHT22;2225;53.568;13.266;2023-04-03T09:37:04;8.90;69.10
4425;DHT22;2225;53.568;13.266;2023-04-03T09:39:54;9.00;68.70
4425;DHT22;2225;53.568;13.266;2023-04-03T09:42:24;9.00;67.90
4425;DHT22;2225;53.568;13.266;2023-04-03T09:44:59;9.00;67.00
4425;DHT22;2225;53.568;13.266;2023-04-03T09:47:30;9.00;66.80
4425;DHT22;2225;53.568;13.266;2023-04-03T09:50:17;9.10;68.00
4425;DHT22;2225;53.568;13.266;2023-04-03T09:52:50;9.20;67.70
4425;DHT22;2225;53.568;13.266;2023-04-03T09:55:23;9.10;67.10
4425;DHT22;2225;53.568;13.266;2023-04-03T09:58:01;9.10;67.10
4425;DHT22;2225;53.568;13.266;2023-04-03T10:00:38;9.10;66.20
4425;DHT22;2225;53.568;13.266;2023-04-03T10:03:30;9.10;65.80
4425;DHT22;2225;53.568;13.266;2023-04-03T10:06:24;9.10;66.30
4425;DHT22;2225;53.568;13.266;2023-04-03T10:08:59;9.20;66.60
4425;DHT22;2225;53.568;13.266;2023-04-03T10:11:29;9.20;66.80
4425;DHT22;2225;53.568;13.266;2023-04-03T10:14:00;9.30;66.70
4425;DHT22;2225;53.568;13.266;2023-04-03T10:16:40;9.30;65.40
4425;DHT22;2225;53.568;13.266;2023-04-03T10:25:26;9.40;65.30
4425;DHT22;2225;53.568;13.266;2023-04-03T10:28:02;9.40;64.20
4425;DHT22;2225;53.568;13.266;2023-04-03T10:30:50;9.40;64.20
4425;DHT22;2225;53.568;13.266;2023-04-03T10:39:43;9.40;64.20
4425;DHT22;2225;53.568;13.266;2023-04-03T10:42:39;9.50;63.90
4425;DHT22;2225;53.568;13.266;2023-04-03T10:45:51;9.50;64.40
4425;DHT22;2225;53.568;13.266;2023-04-03T10:49:02;9.50;63.00
4425;DHT22;2225;53.568;13.266;2023-04-03T10:51:47;9.50;62.90
4425;DHT22;2225;53.568;13.266;2023-04-03T10:54:24;9.50;64.40
4425;DHT22;2225;53.568;13.266;2023-04-03T10:57:03;9.50;64.50
4425;DHT22;2225;53.568;13.266;2023-04-03T10:59:44;9.60;65.20
4425;DHT22;2225;53.568;13.266;2023-04-03T11:02:23;9.70;64.50
4425;DHT22;2225;53.568;13.266;2023-04-03T11:05:13;9.80;63.50
4425;DHT22;2225;53.568;13.266;2023-04-03T11:07:47;9.90;63.50
4425;DHT22;2225;53.568;13.266;2023-04-03T11:10:25;9.90;62.70
4425;DHT22;2225;53.568;13.266;2023-04-03T11:13:18;9.90;63.60
4425;DHT22;2225;53.568;13.266;2023-04-03T11:15:49;10.00;62.40
4425;DHT22;2225;53.568;13.266;2023-04-03T11:18:34;10.00;61.70
4425;DHT22;2225;53.568;13.266;2023-04-03T11:21:52;10.00;61.50
4425;DHT22;2225;53.568;13.266;2023-04-03T11:24:25;10.00;61.40
4425;DHT22;2225;53.568;13.266;2023-04-03T11:26:56;10.10;62.30
4425;DHT22;2225;53.568;13.266;2023-04-03T11:29:31;10.10;62.60
4425;DHT22;2225;53.568;13.266;2023-04-03T11:32:13;10.20;63.30
4425;DHT22;2225;53.568;13.266;2023-04-03T11:34:57;10.20;63.40
4425;DHT22;2225;53.568;13.266;2023-04-03T11:37:40;10.30;62.40
4425;DHT22;2225;53.568;13.266;2023-04-03T11:40:24;10.30;61.50
4425;DHT22;2225;53.568;13.266;2023-04-03T11:45:40;10.30;59.60
4425;DHT22;2225;53.568;13.266;2023-04-03T11:50:50;10.20;58.20
4425;DHT22;2225;53.568;13.266;2023-04-03T11:53:31;10.20;59.00
4425;DHT22;2225;53.568;13.266;2023-04-03T11:56:26;10.10;58.70
4425;DHT22;2225;53.568;13.266;2023-04-03T12:01:50;10.20;60.70
4425;DHT22;2225;53.568;13.266;2023-04-03T12:04:21;10.20;61.50
4425;DHT22;2225;53.568;13.266;2023-04-03T12:06:54;10.20;61.30
4425;DHT22;2225;53.568;13.266;2023-04-03T12:09:29;10.20;61.40
4425;DHT22;2225;53.568;13.266;2023-04-03T12:12:01;10.10;60.80
4425;DHT22;2225;53.568;13.266;2023-04-03T12:14:49;10.10;61.30
4425;DHT22;2225;53.568;13.266;2023-04-03T12:17:23;10.10;60.90
4425;DHT22;2225;53.568;13.266;2023-04-03T12:19:52;10.20;60.60
4425;DHT22;2225;53.568;13.266;2023-04-03T12:22:20;10.20;58.60
4425;DHT22;2225;53.568;13.266;2023-04-03T12:24:51;10.20;57.70
4425;DHT22;2225;53.568;13.266;2023-04-03T12:27:25;10.30;57.80
4425;DHT22;2225;53.568;13.266;2023-04-03T12:30:13;10.20;55.90
4425;DHT22;2225;53.568;13.266;2023-04-03T12:32:57;10.20;56.50
4425;DHT22;2225;53.568;13.266;2023-04-03T12:35:58;10.20;57.20
4425;DHT22;2225;53.568;13.266;2023-04-03T12:38:51;10.10;58.30
4425;DHT22;2225;53.568;13.266;2023-04-03T12:41:57;10.00;58.40
4425;DHT22;2225;53.568;13.266;2023-04-03T12:44:38;10.00;59.20
4425;DHT22;2225;53.568;13.266;2023-04-03T12:47:31;9.90;60.00
4425;DHT22;2225;53.568;13.266;2023-04-03T12:50:04;9.90;59.70
4425;DHT22;2225;53.568;13.266;2023-04-03T12:52:46;9.90;59.50
4425;DHT22;2225;53.568;13.266;2023-04-03T12:55:18;9.90;60.00
4425;DHT22;2225;53.568;13.266;2023-04-03T12:57:47;9.90;60.00
4425;DHT22;2225;53.568;13.266;2023-04-03T13:00:27;9.90;59.60
4425;DHT22;2225;53.568;13.266;2023-04-03T13:03:02;10.00;59.80
4425;DHT22;2225;53.568;13.266;2023-04-03T13:05:31;9.90;60.10
4425;DHT22;2225;53.568;13.266;2023-04-03T13:08:05;9.90;60.80
4425;DHT22;2225;53.568;13.266;2023-04-03T13:10:56;10.00;61.40
4425;DHT22;2225;53.568;13.266;2023-04-03T13:13:27;10.00;62.30
4425;DHT22;2225;53.568;13.266;2023-04-03T13:15:55;9.90;61.90
4425;DHT22;2225;53.568;13.266;2023-04-03T13:18:34;10.00;63.20
4425;DHT22;2225;53.568;13.266;2023-04-03T13:21:07;10.00;64.60
4425;DHT22;2225;53.568;13.266;2023-04-03T13:23:44;9.90;65.00
4425;DHT22;2225;53.568;13.266;2023-04-03T13:26:16;9.80;64.70
4425;DHT22;2225;53.568;13.266;2023-04-03T13:28:45;9.80;65.40
4425;DHT22;2225;53.568;13.266;2023-04-03T13:34:02;9.70;65.40
4425;DHT22;2225;53.568;13.266;2023-04-03T13:36:32;9.60;65.00
4425;DHT22;2225;53.568;13.266;2023-04-03T13:41:41;9.50;64.50
4425;DHT22;2225;53.568;13.266;2023-04-03T13:46:54;9.50;65.20
4425;DHT22;2225;53.568;13.266;2023-04-03T13:51:55;9.50;66.70
4425;DHT22;2225;53.568;13.266;2023-04-03T13:54:36;9.40;66.90
4425;DHT22;2225;53.568;13.266;2023-04-03T13:57:14;9.40;65.70
4425;DHT22;2225;53.568;13.266;2023-04-03T13:59:42;9.50;66.20
4425;DHT22;2225;53.568;13.266;2023-04-03T14:02:28;9.50;65.70
4425;DHT22;2225;53.568;13.266;2023-04-03T14:04:59;9.60;66.00
4425;DHT22;2225;53.568;13.266;2023-04-03T14:07:29;9.60;65.20
4425;DHT22;2225;53.568;13.266;2023-04-03T14:09:57;9.60;65.20
4425;DHT22;2225;53.568;13.266;2023-04-03T14:12:33;9.60;64.90
4425;DHT22;2225;53.568;13.266;2023-04-03T14:15:04;9.70;65.40
4425;DHT22;2225;53.568;13.266;2023-04-03T14:17:34;9.80;66.00
4425;DHT22;2225;53.568;13.266;2023-04-03T14:20:01;9.80;65.90
4425;DHT22;2225;53.568;13.266;2023-04-03T14:22:31;9.90;65.60
4425;DHT22;2225;53.568;13.266;2023-04-03T14:25:00;9.90;65.50
4425;DHT22;2225;53.568;13.266;2023-04-03T14:27:30;9.90;64.20
4425;DHT22;2225;53.568;13.266;2023-04-03T14:30:01;9.90;63.00
4425;DHT22;2225;53.568;13.266;2023-04-03T14:32:30;10.00;63.40
4425;DHT22;2225;53.568;13.266;2023-04-03T14:34:57;10.00;63.60
4425;DHT22;2225;53.568;13.266;2023-04-03T14:37:28;10.00;63.30
4425;DHT22;2225;53.568;13.266;2023-04-03T14:39:58;10.00;62.60
4425;DHT22;2225;53.568;13.266;2023-04-03T14:42:31;10.00;62.70
4425;DHT22;2225;53.568;13.266;2023-04-03T14:45:01;10.00;63.10
4425;DHT22;2225;53.568;13.266;2023-04-03T14:47:44;10.00;63.30
4425;DHT22;2225;53.568;13.266;2023-04-03T14:50:19;10.00;63.90
4425;DHT22;2225;53.568;13.266;2023-04-03T14:52:50;9.90;64.30
4425;DHT22;2225;53.568;13.266;2023-04-03T14:55:20;9.90;65.10
4425;DHT22;2225;53.568;13.266;2023-04-03T14:57:48;9.80;66.10
4425;DHT22;2225;53.568;13.266;2023-04-03T15:00:18;9.70;65.60
4425;DHT22;2225;53.568;13.266;2023-04-03T15:02:46;9.60;66.30
4425;DHT22;2225;53.568;13.266;2023-04-03T15:05:15;9.60;66.90
4425;DHT22;2225;53.568;13.266;2023-04-03T15:07:49;9.50;67.50
4425;DHT22;2225;53.568;13.266;2023-04-03T15:10:22;9.40;67.90
4425;DHT22;2225;53.568;13.266;2023-04-03T15:12:51;9.40;68.30
4425;DHT22;2225;53.568;13.266;2023-04-03T15:15:20;9.30;68.60
4425;DHT22;2225;53.568;13.266;2023-04-03T15:17:52;9.30;69.20
4425;DHT22;2225;53.568;13.266;2023-04-03T15:20:23;9.30;69.40
4425;DHT22;2225;53.568;13.266;2023-04-03T15:22:51;9.30;70.20
4425;DHT22;2225;53.568;13.266;2023-04-03T15:25:18;9.30;70.10
4425;DHT22;2225;53.568;13.266;2023-04-03T15:27:46;9.30;70.10
4425;DHT22;2225;53.568;13.266;2023-04-03T15:30:18;9.20;69.50
4425;DHT22;2225;53.568;13.266;2023-04-03T15:32:46;9.20;70.00
4425;DHT22;2225;53.568;13.266;2023-04-03T15:35:14;9.20;70.40
4425;DHT22;2225;53.568;13.266;2023-04-03T15:37:41;9.10;70.70
4425;DHT22;2225;53.568;13.266;2023-04-03T15:40:09;9.00;70.80
4425;DHT22;2225;53.568;13.266;2023-04-03T15:42:36;9.00;71.40
4425;DHT22;2225;53.568;13.266;2023-04-03T15:45:04;9.00;71.90
4425;DHT22;2225;53.568;13.266;2023-04-03T15:47:31;9.00;72.30
4425;DHT22;2225;53.568;13.266;2023-04-03T15:49:59;9.00;72.30
4425;DHT22;2225;53.568;13.266;2023-04-03T15:52:26;8.90;72.30
4425;DHT22;2225;53.568;13.266;2023-04-03T15:54:53;8.90;73.50
4425;DHT22;2225;53.568;13.266;2023-04-03T15:57:20;8.90;72.60
4425;DHT22;2225;53.568;13.266;2023-04-03T15:59:52;8.80;72.80
4425;DHT22;2225;53.568;13.266;2023-04-03T16:02:20;8.80;72.90
4425;DHT22;2225;53.568;13.266;2023-04-03T16:04:48;8.80;72.90
4425;DHT22;2225;53.568;13.266;2023-04-03T16:07:15;8.70;72.60
4425;DHT22;2225;53.568;13.266;2023-04-03T16:09:42;8.70;73.10
4425;DHT22;2225;53.568;13.266;2023-04-03T16:12:09;8.70;72.50
4425;DHT22;2225;53.568;13.266;2023-04-03T16:14:35;8.70;72.80
4425;DHT22;2225;53.568;13.266;2023-04-03T16:17:02;8.70;73.40
4425;DHT22;2225;53.568;13.266;2023-04-03T16:19:30;8.60;73.90
4425;DHT22;2225;53.568;13.266;2023-04-03T16:21:56;8.60;73.90
4425;DHT22;2225;53.568;13.266;2023-04-03T16:24:24;8.60;73.90
4425;DHT22;2225;53.568;13.266;2023-04-03T16:26:51;8.60;74.10
4425;DHT22;2225;53.568;13.266;2023-04-03T16:29:19;8.60;74.10
4425;DHT22;2225;53.568;13.266;2023-04-03T16:31:46;8.60;74.20
4425;DHT22;2225;53.568;13.266;2023-04-03T16:34:13;8.50;74.50
4425;DHT22;2225;53.568;13.266;2023-04-03T16:36:41;8.50;74.70
4425;DHT22;2225;53.568;13.266;2023-04-03T16:39:07;8.50;74.90
4425;DHT22;2225;53.568;13.266;2023-04-03T16:41:36;8.50;75.20
4425;DHT22;2225;53.568;13.266;2023-04-03T16:44:03;8.40;75.10
4425;DHT22;2225;53.568;13.266;2023-04-03T16:46:30;8.30;75.90
4425;DHT22;2225;53.568;13.266;2023-04-03T16:48:57;8.40;75.90
4425;DHT22;2225;53.568;13.266;2023-04-03T16:51:24;8.40;75.90
4425;DHT22;2225;53.568;13.266;2023-04-03T16:53:51;8.40;76.00
4425;DHT22;2225;53.568;13.266;2023-04-03T16:56:18;8.30;75.60
4425;DHT22;2225;53.568;13.266;2023-04-03T16:58:45;8.40;75.70
4425;DHT22;2225;53.568;13.266;2023-04-03T17:01:14;8.40;75.60
4425;DHT22;2225;53.568;13.266;2023-04-03T17:03:43;8.40;75.90
4425;DHT22;2225;53.568;13.266;2023-04-03T17:06:12;8.40;75.90
4425;DHT22;2225;53.568;13.266;2023-04-03T17:08:44;8.30;75.80
4425;DHT22;2225;53.568;13.266;2023-04-03T17:11:25;8.30;75.70
4425;DHT22;2225;53.568;13.266;2023-04-03T17:13:53;8.20;75.10